CheckWX is a tool to help pilots better visualize weather data.  It is not intended as a substitute for an official pre-flight weather briefing.

10:08:17 UTC

KPUB TAF
Pueblo Memorial Airport
Pueblo, Colorado, USA
KPUB 260523Z 2606/2706 32005KT P6SM FEW150 FM261600 21007KT P6SM SCT150 FM262000 24012G22KT P6SM SCT120 BKN200 FM270300 34007KT P6SM FEW120 BKN200

Jun-26@
06:00 UTC

Jun-26 @ 06:00 UTC

Jun-26@
16:00 UTC

Jun-26 @ 16:00 UTC

KPUB 260523Z 2606/2706 32005KT P6SM FEW150
Wind
  • 320° at 5 KTS
Cloud Levels
  • Few at 15,000' AGL

Jun-26@
16:00 UTC

Jun-26 @ 16:00 UTC

Jun-26@
20:00 UTC

Jun-26 @ 20:00 UTC

FM261600 21007KT P6SM SCT150

From

From Standard forecast or significant change

Wind
  • 210° at 7 KTS
Cloud Levels
  • Scattered at 15,000' AGL

Jun-26@
20:00 UTC

Jun-26 @ 20:00 UTC

Jun-27@
03:00 UTC

Jun-27 @ 03:00 UTC

FM262000 24012G22KT P6SM SCT120 BKN200

From

From Standard forecast or significant change

Wind
  • 240° at 12 KTS
  • {Gusting to 22 KTS
Cloud Levels
  • Scattered at 12,000' AGL
  • Broken at 20,000' AGL

Jun-27@
03:00 UTC

Jun-27 @ 03:00 UTC

Jun-27@
06:00 UTC

Jun-27 @ 06:00 UTC

FM270300 34007KT P6SM FEW120 BKN200

From

From Standard forecast or significant change

Wind
  • 340° at 7 KTS
Cloud Levels
  • Few at 12,000' AGL
  • Broken at 20,000' AGL